createdAt,value
2023-05-13T06:31:54.113Z,19.50
2023-05-13T06:34:21.622Z,19.90
2023-05-13T06:36:48.700Z,20.20
2023-05-13T06:39:16.004Z,20.60
2023-05-13T06:41:43.027Z,20.90
2023-05-13T06:44:10.067Z,21.30
2023-05-13T06:46:37.076Z,21.70
2023-05-13T06:49:04.054Z,21.90
2023-05-13T06:51:35.885Z,22.30
2023-05-13T06:54:02.840Z,22.40
2023-05-13T06:56:30.549Z,22.80
2023-05-13T06:58:57.571Z,23.00
2023-05-13T07:01:24.575Z,23.30
2023-05-13T07:03:51.528Z,23.50
2023-05-13T07:06:18.665Z,23.80
2023-05-13T07:08:45.610Z,24.10
2023-05-13T07:11:12.717Z,24.30
2023-05-13T07:13:40.098Z,24.30
2023-05-13T07:16:07.327Z,24.50
2023-05-13T07:18:34.607Z,24.60
2023-05-13T07:21:01.734Z,24.80
2023-05-13T07:23:28.630Z,24.90
2023-05-13T07:25:55.932Z,24.80
2023-05-13T07:28:22.906Z,25.00
2023-05-13T07:30:50.772Z,25.40
2023-05-13T07:33:17.822Z,25.70
2023-05-13T07:35:45.069Z,25.90
2023-05-13T07:38:12.525Z,25.90
2023-05-13T07:40:39.973Z,26.00
2023-05-13T07:43:07.217Z,26.20
2023-05-13T07:45:34.439Z,26.30
2023-05-13T07:48:01.530Z,26.30
2023-05-13T07:50:28.709Z,26.30
2023-05-13T07:52:55.719Z,26.50
2023-05-13T07:55:25.478Z,26.70
2023-05-13T07:57:54.912Z,26.70
2023-05-13T08:00:21.948Z,26.80
2023-05-13T08:02:49.569Z,26.90
2023-05-13T08:05:16.641Z,27.00
2023-05-13T08:07:43.579Z,27.30
2023-05-13T08:10:10.764Z,27.40
2023-05-13T08:12:37.949Z,27.30
2023-05-13T08:15:06.113Z,27.50
2023-05-13T08:17:33.814Z,27.60
2023-05-13T08:20:02.153Z,27.50
2023-05-13T08:22:29.192Z,27.50
2023-05-13T08:24:56.164Z,27.40
2023-05-13T08:27:23.316Z,27.40
2023-05-13T08:32:18.816Z,27.10
2023-05-13T08:34:46.047Z,27.10
2023-05-13T08:37:13.063Z,27.20
2023-05-13T08:39:39.971Z,27.10
2023-05-13T08:42:09.087Z,27.20
